Time;durP1;ratioP1;P1;durP2;ratioP2;P2;SDS_P1;SDS_P2;PMS_P1;PMS_P2;Temp;Humidity;BMP_temperature;BMP_pressure;BME280_temperature;BME280_humidity;BME280_pressure;Samples;Min_cycle;Max_cycle;Signal;HPM_P1;HPM_P2
2023/04/25 00:00:52;;;;;;;261.17;244.13;;;7.80;20.60;;;;;;5011764;28;20278;-71
2023/04/25 00:03:18;;;;;;;172.97;160.03;;;7.80;21.20;;;;;;5011539;28;20181;-71
2023/04/25 00:05:45;;;;;;;196.23;182.47;;;7.80;21.00;;;;;;5011694;28;20177;-71
2023/04/25 00:08:10;;;;;;;132.00;120.43;;;7.80;20.50;;;;;;5011714;28;20212;-71
2023/04/25 00:10:36;;;;;;;129.30;117.67;;;7.80;20.80;;;;;;5011457;28;20537;-71
2023/04/25 00:13:03;;;;;;;113.73;102.67;;;7.90;20.90;;;;;;5011360;28;20191;-72
2023/04/25 00:15:31;;;;;;;197.60;183.57;;;7.90;20.70;;;;;;5011681;28;20790;-72
2023/04/25 00:17:57;;;;;;;189.93;176.17;;;7.90;20.90;;;;;;5011863;28;20549;-71
2023/04/25 00:20:23;;;;;;;190.80;176.53;;;7.90;21.10;;;;;;5015319;28;20477;-71
2023/04/25 00:22:49;;;;;;;90.83;79.37;;;8.00;21.10;;;;;;5013712;28;20235;-71
2023/04/25 00:25:14;;;;;;;180.40;167.50;;;8.10;20.80;;;;;;5015265;28;20630;-71
2023/04/25 00:27:41;;;;;;;161.40;148.83;;;8.10;20.70;;;;;;5015342;28;20477;-72
2023/04/25 00:30:07;;;;;;;157.73;145.30;;;8.10;20.20;;;;;;5014043;28;20707;-71
2023/04/25 00:32:33;;;;;;;232.07;216.80;;;8.20;20.00;;;;;;5013578;28;20434;-71
2023/04/25 00:34:59;;;;;;;174.83;162.20;;;8.20;19.70;;;;;;5015515;28;20413;-71
2023/04/25 00:37:24;;;;;;;297.17;278.70;;;8.20;19.60;;;;;;5015205;28;20185;-72
2023/04/25 00:39:50;;;;;;;137.10;125.53;;;8.30;18.70;;;;;;5014931;28;20182;-71
2023/04/25 00:42:16;;;;;;;233.37;218.07;;;8.30;19.00;;;;;;5014725;28;20186;-72
2023/04/25 00:44:43;;;;;;;155.47;142.03;;;8.20;18.50;;;;;;5015132;28;20954;-71
2023/04/25 00:47:10;;;;;;;143.03;130.80;;;8.20;18.00;;;;;;5014908;28;20185;-72
2023/04/25 00:49:36;;;;;;;239.67;224.43;;;8.20;18.50;;;;;;5014878;28;20426;-71
2023/04/25 00:52:01;;;;;;;126.03;114.93;;;8.20;18.80;;;;;;5014367;28;20839;-72
2023/04/25 00:54:27;;;;;;;148.40;136.57;;;8.20;18.80;;;;;;5014840;28;20186;-72
2023/04/25 00:56:53;;;;;;;154.70;142.50;;;8.30;18.80;;;;;;5014809;28;20635;-72
2023/04/25 00:59:20;;;;;;;142.10;130.33;;;8.30;18.40;;;;;;5014801;28;20175;-71
2023/04/25 01:01:45;;;;;;;144.73;133.10;;;8.30;18.00;;;;;;5014364;28;20627;-72
2023/04/25 01:04:11;;;;;;;181.17;167.50;;;8.30;18.00;;;;;;5014647;28;20499;-71
2023/04/25 01:06:36;;;;;;;189.23;176.17;;;8.30;18.00;;;;;;5014648;28;20217;-71
2023/04/25 01:09:03;;;;;;;301.77;281.90;;;8.30;18.00;;;;;;5014544;28;20193;-71
2023/04/25 01:11:29;;;;;;;252.37;236.13;;;8.30;18.00;;;;;;5014196;28;20209;-72
2023/04/25 01:13:55;;;;;;;281.23;264.27;;;8.30;18.00;;;;;;5014573;28;20433;-72
2023/04/25 01:16:20;;;;;;;326.87;307.33;;;8.30;18.00;;;;;;5014506;28;20416;-71
2023/04/25 01:18:47;;;;;;;163.17;150.67;;;8.30;18.00;;;;;;5014929;28;20173;-71
2023/04/25 01:21:13;;;;;;;240.47;224.67;;;8.20;18.00;;;;;;5014264;28;20242;-71
2023/04/25 01:23:40;;;;;;;281.93;264.30;;;8.20;18.20;;;;;;5012931;28;20454;-71
2023/04/25 01:26:06;;;;;;;186.07;172.67;;;8.10;18.40;;;;;;5014028;28;20420;-72
2023/04/25 01:28:33;;;;;;;149.43;137.50;;;8.20;18.00;;;;;;5014275;28;20423;-72
2023/04/25 01:30:59;;;;;;;208.10;194.77;;;8.30;18.00;;;;;;5011588;28;20468;-72
2023/04/25 01:33:25;;;;;;;148.50;135.43;;;8.40;18.10;;;;;;5013870;28;20436;-71
2023/04/25 01:35:50;;;;;;;201.27;187.63;;;8.40;18.10;;;;;;5013982;28;20212;-72
2023/04/25 01:38:16;;;;;;;209.27;195.40;;;8.40;18.10;;;;;;5014029;28;20179;-72
2023/04/25 01:40:44;;;;;;;267.43;250.47;;;8.40;18.10;;;;;;5013600;28;20220;-71
2023/04/25 01:43:11;;;;;;;280.50;262.77;;;8.30;18.00;;;;;;5013579;28;20211;-71
2023/04/25 01:45:40;;;;;;;288.47;270.07;;;8.20;18.70;;;;;;5013875;28;20428;-71
2023/04/25 01:48:07;;;;;;;182.47;169.17;;;8.20;18.70;;;;;;5014046;28;21010;-71
2023/04/25 01:50:33;;;;;;;218.53;204.00;;;8.30;18.50;;;;;;5013621;28;20463;-71
2023/04/25 01:52:58;;;;;;;257.53;240.80;;;8.30;18.50;;;;;;5013642;28;20417;-72
2023/04/25 01:55:24;;;;;;;305.80;288.27;;;8.20;18.50;;;;;;5013416;28;20191;-71
2023/04/25 01:57:49;;;;;;;203.43;189.43;;;8.20;18.70;;;;;;5012572;28;20198;-72
2023/04/25 02:00:15;;;;;;;175.13;161.73;;;8.10;19.50;;;;;;5014348;28;20258;-73
2023/04/25 02:02:41;;;;;;;215.97;201.53;;;8.20;18.70;;;;;;5014589;28;20183;-73
2023/04/25 02:05:07;;;;;;;144.10;132.50;;;8.30;18.10;;;;;;5014749;28;20619;-71
2023/04/25 02:07:32;;;;;;;159.83;147.23;;;8.30;19.20;;;;;;5015883;28;20196;-71
2023/04/25 02:09:58;;;;;;;242.10;226.07;;;8.30;18.70;;;;;;5014562;28;20799;-73
2023/04/25 02:12:26;;;;;;;208.67;194.57;;;8.30;18.00;;;;;;5013917;28;20213;-72
2023/04/25 02:14:51;;;;;;;211.83;196.93;;;8.30;18.30;;;;;;5014449;28;20261;-73
2023/04/25 02:17:17;;;;;;;262.77;247.60;;;8.30;18.60;;;;;;5012922;28;20969;-72
2023/04/25 02:19:43;;;;;;;226.37;210.87;;;8.30;19.00;;;;;;5014565;28;20180;-72
2023/04/25 02:22:08;;;;;;;196.00;181.83;;;8.20;19.20;;;;;;5014628;28;20447;-73
2023/04/25 02:24:34;;;;;;;179.10;165.97;;;8.10;19.50;;;;;;5014551;28;20725;-73
2023/04/25 02:27:00;;;;;;;169.90;157.37;;;8.10;19.70;;;;;;5013550;28;20321;-72
2023/04/25 02:29:26;;;;;;;321.67;303.53;;;8.20;19.40;;;;;;5014767;28;20450;-73
2023/04/25 02:31:51;;;;;;;184.93;171.20;;;8.20;19.60;;;;;;5015116;28;20455;-72
2023/04/25 02:34:17;;;;;;;282.77;265.47;;;8.00;19.30;;;;;;5015079;28;20183;-73
2023/04/25 02:36:42;;;;;;;153.30;141.03;;;8.10;19.00;;;;;;5015717;28;20174;-73
2023/04/25 02:39:08;;;;;;;178.13;164.97;;;8.10;19.70;;;;;;5014913;28;20178;-73
2023/04/25 02:41:33;;;;;;;186.23;172.50;;;8.10;19.40;;;;;;5013687;28;20217;-73
2023/04/25 02:43:59;;;;;;;280.50;263.60;;;8.10;19.60;;;;;;5013877;28;20220;-73
2023/04/25 02:46:24;;;;;;;169.47;156.93;;;8.10;19.70;;;;;;5013642;28;20599;-73
2023/04/25 02:48:50;;;;;;;259.37;243.07;;;8.00;19.40;;;;;;5014382;28;20312;-73
2023/04/25 02:51:16;;;;;;;199.93;185.90;;;7.80;20.10;;;;;;5014932;28;20638;-73
2023/04/25 02:53:42;;;;;;;149.23;137.07;;;7.80;20.60;;;;;;5015016;28;20265;-71
2023/04/25 02:56:07;;;;;;;171.97;159.37;;;7.90;20.50;;;;;;5014890;28;20442;-73
2023/04/25 02:58:33;;;;;;;240.80;225.73;;;7.90;20.40;;;;;;5014361;28;20170;-73
2023/04/25 03:00:58;;;;;;;125.80;114.40;;;8.00;20.10;;;;;;5014936;28;20211;-72
2023/04/25 03:03:24;;;;;;;240.60;224.60;;;7.90;20.40;;;;;;5014850;28;20190;-71
2023/04/25 03:05:50;;;;;;;139.60;127.97;;;7.80;20.20;;;;;;5015237;28;20264;-73
2023/04/25 03:08:17;;;;;;;174.17;161.33;;;7.70;21.90;;;;;;5014490;28;20413;-73
2023/04/25 03:10:43;;;;;;;101.47;91.03;;;7.60;21.80;;;;;;5012980;28;20487;-73
2023/04/25 03:13:09;;;;;;;190.83;177.63;;;7.50;22.00;;;;;;5012960;28;20412;-73
2023/04/25 03:15:35;;;;;;;176.30;162.70;;;7.50;21.70;;;;;;5014118;28;20421;-72
2023/04/25 03:18:01;;;;;;;160.53;147.83;;;7.40;22.00;;;;;;5013649;28;20213;-72
2023/04/25 03:20:26;;;;;;;144.87;132.63;;;7.40;21.70;;;;;;5013301;28;20793;-72
2023/04/25 03:22:52;;;;;;;152.43;140.37;;;7.40;21.80;;;;;;5013074;28;20181;-73
2023/04/25 03:25:17;;;;;;;161.80;149.07;;;7.40;22.50;;;;;;5013443;28;20178;-73
2023/04/25 03:27:43;;;;;;;170.07;157.13;;;7.30;23.50;;;;;;5013324;28;20176;-72
2023/04/25 03:30:09;;;;;;;107.57;96.93;;;7.30;24.00;;;;;;5014986;28;20620;-72
2023/04/25 03:32:35;;;;;;;112.33;101.23;;;7.30;24.40;;;;;;5015062;28;20521;-73
2023/04/25 03:35:00;;;;;;;119.60;108.53;;;7.30;24.60;;;;;;5015142;28;20590;-73
2023/04/25 03:37:26;;;;;;;156.03;143.93;;;7.40;25.00;;;;;;5015495;28;20912;-73
2023/04/25 03:39:51;;;;;;;114.93;104.13;;;7.40;24.50;;;;;;5012598;28;20180;-73
2023/04/25 03:42:17;;;;;;;211.20;197.00;;;7.50;24.20;;;;;;5012884;28;20187;-71
2023/04/25 03:44:43;;;;;;;151.87;139.90;;;7.50;24.20;;;;;;5012384;28;20698;-73
2023/04/25 03:47:08;;;;;;;238.47;223.27;;;7.60;23.60;;;;;;5011178;28;20465;-73
2023/04/25 03:49:35;;;;;;;263.40;248.07;;;7.70;23.30;;;;;;5011288;28;20187;-73
2023/04/25 03:52:01;;;;;;;251.17;236.20;;;7.70;23.40;;;;;;5012254;28;20208;-73
2023/04/25 03:54:26;;;;;;;212.83;197.77;;;7.70;22.70;;;;;;5016132;28;20412;-73
2023/04/25 03:56:52;;;;;;;184.07;171.03;;;7.70;22.50;;;;;;5016907;28;20427;-73
2023/04/25 03:59:17;;;;;;;118.30;107.40;;;7.70;22.50;;;;;;5015267;28;20172;-73
2023/04/25 04:01:43;;;;;;;157.97;145.23;;;7.70;23.00;;;;;;5016290;28;20208;-73
2023/04/25 04:04:09;;;;;;;188.37;174.03;;;7.70;23.40;;;;;;5016402;28;20216;-73
2023/04/25 04:06:34;;;;;;;192.43;178.93;;;7.70;23.20;;;;;;5016529;28;20222;-73
2023/04/25 04:09:00;;;;;;;93.33;80.57;;;7.70;23.20;;;;;;5016172;28;20184;-73
2023/04/25 04:11:25;;;;;;;226.20;211.27;;;7.70;23.40;;;;;;5016302;28;20212;-72
2023/04/25 04:13:51;;;;;;;149.97;138.40;;;7.70;23.10;;;;;;5015944;28;20263;-73
2023/04/25 04:16:17;;;;;;;184.07;170.60;;;7.70;22.40;;;;;;5016429;28;20204;-72
2023/04/25 04:18:42;;;;;;;161.37;148.63;;;7.60;22.80;;;;;;5014567;28;20666;-72
2023/04/25 04:21:08;;;;;;;203.93;189.57;;;7.70;23.10;;;;;;5015735;28;20209;-71
2023/04/25 04:23:33;;;;;;;155.97;143.87;;;7.60;22.80;;;;;;5015732;28;20190;-73
2023/04/25 04:25:59;;;;;;;124.40;113.50;;;7.60;23.10;;;;;;5015858;28;20686;-72
2023/04/25 04:28:26;;;;;;;191.43;177.77;;;7.60;23.40;;;;;;5015773;28;20750;-73
2023/04/25 04:30:52;;;;;;;93.23;83.40;;;7.60;22.90;;;;;;5016486;28;20457;-74
2023/04/25 04:33:21;;;;;;;203.30;189.60;;;7.60;23.20;;;;;;5016614;28;20852;-73
2023/04/25 04:35:46;;;;;;;241.27;224.87;;;7.60;23.40;;;;;;5016195;28;20640;-72
2023/04/25 04:38:14;;;;;;;91.03;78.10;;;7.60;23.10;;;;;;5016117;28;20463;-73
2023/04/25 04:40:41;;;;;;;155.23;142.97;;;7.70;22.60;;;;;;5016389;28;20727;-72
2023/04/25 04:43:08;;;;;;;142.30;130.83;;;7.70;22.10;;;;;;5015111;28;20815;-72
2023/04/25 04:45:34;;;;;;;125.17;113.87;;;7.70;22.70;;;;;;5015267;28;20418;-72
2023/04/25 04:47:59;;;;;;;315.27;298.07;;;7.70;21.90;;;;;;5015041;28;20761;-72
2023/04/25 04:50:26;;;;;;;211.77;197.87;;;7.80;22.10;;;;;;5014645;28;20199;-73
2023/04/25 04:52:52;;;;;;;190.80;177.27;;;7.90;22.00;;;;;;5014726;28;20177;-72
2023/04/25 04:55:17;;;;;;;130.57;119.13;;;7.90;22.00;;;;;;5013653;28;20792;-72
2023/04/25 04:57:43;;;;;;;109.30;98.57;;;8.00;21.50;;;;;;5014769;28;20180;-72
2023/04/25 05:00:12;;;;;;;210.50;196.13;;;8.00;20.20;;;;;;5014643;28;20212;-73
2023/04/25 05:02:38;;;;;;;155.03;142.63;;;7.90;20.70;;;;;;5014439;28;20597;-71
2023/04/25 05:05:05;;;;;;;241.13;226.17;;;8.00;20.40;;;;;;5013334;28;20937;-72
2023/04/25 05:07:30;;;;;;;155.67;143.13;;;8.00;20.30;;;;;;5014635;28;20429;-70
2023/04/25 05:09:56;;;;;;;247.73;232.27;;;8.00;20.30;;;;;;5012942;28;20429;-70
2023/04/25 05:12:21;;;;;;;251.33;235.93;;;8.10;20.10;;;;;;5014235;28;20305;-71
2023/04/25 05:14:47;;;;;;;253.53;236.23;;;8.20;20.00;;;;;;5014404;28;20214;-71
2023/04/25 05:17:12;;;;;;;154.60;142.53;;;8.10;19.40;;;;;;5014719;28;20230;-70
2023/04/25 05:19:39;;;;;;;180.57;167.00;;;8.10;19.30;;;;;;5013040;28;20595;-69
2023/04/25 05:22:04;;;;;;;191.40;178.00;;;8.30;19.00;;;;;;5014027;28;20628;-70
2023/04/25 05:24:30;;;;;;;259.53;242.83;;;8.30;18.70;;;;;;5014147;28;20425;-69
2023/04/25 05:26:56;;;;;;;190.57;176.23;;;8.30;18.40;;;;;;5014540;28;20192;-70
2023/04/25 05:29:21;;;;;;;169.80;156.57;;;8.40;17.70;;;;;;5014255;28;20428;-69
2023/04/25 05:31:48;;;;;;;195.10;180.73;;;8.50;18.10;;;;;;5014054;28;20284;-70
2023/04/25 05:34:13;;;;;;;211.83;196.53;;;8.40;18.10;;;;;;5014211;28;20238;-70
2023/04/25 05:36:39;;;;;;;127.87;116.40;;;8.40;18.90;;;;;;5014086;28;20417;-69
2023/04/25 05:39:06;;;;;;;209.67;195.50;;;8.50;19.40;;;;;;5014238;28;20180;-70
2023/04/25 05:41:31;;;;;;;204.27;190.53;;;8.50;19.40;;;;;;5013738;28;20568;-69
2023/04/25 05:43:57;;;;;;;298.20;277.37;;;8.70;19.30;;;;;;5012799;28;20445;-70
2023/04/25 05:46:22;;;;;;;296.03;276.57;;;8.70;17.10;;;;;;5013965;28;20178;-69
2023/04/25 05:48:48;;;;;;;277.47;259.63;;;8.70;18.20;;;;;;5013887;28;20188;-69
2023/04/25 05:51:13;;;;;;;305.27;286.27;;;8.80;18.00;;;;;;5013509;28;20222;-69
2023/04/25 05:53:39;;;;;;;203.17;185.20;;;9.20;16.80;;;;;;5013478;28;20273;-70
2023/04/25 05:56:04;;;;;;;304.33;281.47;;;9.50;15.30;;;;;;5014026;28;20189;-70
2023/04/25 05:58:30;;;;;;;206.97;191.27;;;9.90;14.70;;;;;;5013651;28;20199;-69
2023/04/25 06:00:56;;;;;;;163.63;150.47;;;10.10;12.40;;;;;;5013562;28;20578;-70
2023/04/25 06:03:22;;;;;;;180.70;167.40;;;10.40;11.80;;;;;;5013429;28;20822;-70
2023/04/25 06:05:48;;;;;;;222.47;206.63;;;10.50;11.40;;;;;;5013230;28;20661;-70
2023/04/25 06:08:13;;;;;;;240.20;223.90;;;10.80;10.20;;;;;;5012095;28;20430;-70
2023/04/25 06:10:39;;;;;;;323.13;301.33;;;11.10;10.00;;;;;;5013254;28;20212;-70
2023/04/25 06:13:05;;;;;;;256.83;239.77;;;11.00;9.70;;;;;;5013191;28;20691;-69
2023/04/25 06:15:32;;;;;;;173.53;159.43;;;11.00;8.70;;;;;;5006595;28;20426;-71
2023/04/25 06:17:59;;;;;;;183.20;168.90;;;11.00;9.30;;;;;;5001732;28;20964;-70
2023/04/25 06:20:24;;;;;;;195.83;181.60;;;11.00;9.40;;;;;;5004326;28;20442;-70
2023/04/25 06:22:51;;;;;;;228.00;212.13;;;10.70;9.60;;;;;;4997001;28;20442;-70
2023/04/25 06:25:17;;;;;;;215.47;199.77;;;10.30;9.90;;;;;;5003164;28;20714;-69
2023/04/25 06:27:43;;;;;;;294.70;275.73;;;10.20;10.50;;;;;;4998304;28;20432;-70
2023/04/25 06:30:09;;;;;;;188.43;174.97;;;10.00;11.10;;;;;;5013178;28;20206;-70
2023/04/25 06:32:35;;;;;;;159.67;146.93;;;10.00;11.80;;;;;;5012813;28;20620;-70
2023/04/25 06:35:00;;;;;;;237.20;219.50;;;9.70;12.70;;;;;;5012787;28;20501;-70
2023/04/25 06:37:26;;;;;;;169.87;156.87;;;9.60;13.90;;;;;;5013602;28;20636;-71
2023/04/25 06:39:52;;;;;;;223.03;207.73;;;9.40;14.40;;;;;;5012719;28;20637;-71
2023/04/25 06:42:17;;;;;;;177.73;163.97;;;9.50;13.50;;;;;;5012641;28;20596;-70
2023/04/25 06:44:43;;;;;;;232.93;216.23;;;9.50;13.90;;;;;;5013033;28;20277;-70
2023/04/25 06:47:09;;;;;;;194.67;180.77;;;9.60;12.90;;;;;;5012618;28;20187;-70
2023/04/25 06:49:34;;;;;;;208.97;195.27;;;9.60;12.90;;;;;;5012437;28;20661;-70
2023/04/25 06:52:00;;;;;;;230.30;214.43;;;9.60;13.50;;;;;;5012385;28;20222;-70
2023/04/25 06:54:27;;;;;;;246.80;231.10;;;9.60;12.70;;;;;;5007685;28;20183;-70
2023/04/25 06:56:53;;;;;;;242.37;226.23;;;9.50;12.20;;;;;;5002807;28;20179;-70
2023/04/25 06:59:19;;;;;;;188.30;174.97;;;9.50;11.90;;;;;;4993127;28;20426;-70
2023/04/25 07:01:44;;;;;;;268.50;252.27;;;9.40;12.50;;;;;;4992969;28;20843;-71
2023/04/25 07:04:10;;;;;;;156.87;145.33;;;9.40;12.70;;;;;;4993075;28;20180;-70
2023/04/25 07:06:38;;;;;;;188.83;175.00;;;9.40;12.90;;;;;;4994051;28;20178;-70
2023/04/25 07:09:04;;;;;;;150.37;138.53;;;9.30;12.20;;;;;;5004983;28;20662;-70
2023/04/25 07:11:30;;;;;;;217.00;203.00;;;9.40;12.70;;;;;;5003484;28;20486;-70
2023/04/25 07:13:55;;;;;;;194.67;180.70;;;9.50;13.30;;;;;;5011065;28;20546;-70
2023/04/25 07:16:21;;;;;;;175.47;162.73;;;9.60;13.30;;;;;;5010764;28;20179;-70
2023/04/25 07:18:46;;;;;;;164.83;152.47;;;9.60;13.00;;;;;;4993190;28;20203;-70
2023/04/25 07:21:12;;;;;;;182.77;169.77;;;9.80;13.40;;;;;;4996940;28;20438;-70
2023/04/25 07:23:40;;;;;;;284.00;265.03;;;9.80;13.40;;;;;;5012011;28;20570;-71
2023/04/25 07:26:06;;;;;;;171.47;158.63;;;9.60;14.10;;;;;;5006849;28;20184;-70
2023/04/25 07:28:31;;;;;;;193.47;180.33;;;9.40;14.10;;;;;;5011585;28;20915;-71
2023/04/25 07:30:58;;;;;;;293.67;274.07;;;9.50;15.10;;;;;;5009712;28;20359;-71
2023/04/25 07:33:23;;;;;;;162.00;149.47;;;9.60;15.10;;;;;;4992080;28;20523;-70
2023/04/25 07:35:49;;;;;;;240.77;222.77;;;9.50;16.60;;;;;;4992345;28;20513;-70
2023/04/25 07:38:15;;;;;;;226.83;211.63;;;9.40;16.40;;;;;;4992219;28;20172;-71
2023/04/25 07:40:41;;;;;;;232.63;216.20;;;9.20;17.40;;;;;;4999675;28;20461;-70
2023/04/25 07:43:07;;;;;;;191.30;177.03;;;9.30;18.00;;;;;;5011741;28;20260;-70
2023/04/25 07:45:32;;;;;;;177.77;163.97;;;9.40;18.30;;;;;;5012180;28;20653;-70
2023/04/25 07:47:58;;;;;;;115.43;104.63;;;9.60;18.70;;;;;;5012536;28;20608;-71
2023/04/25 07:50:23;;;;;;;234.10;217.80;;;9.70;18.60;;;;;;5006665;28;20767;-70
2023/04/25 07:52:49;;;;;;;243.40;227.47;;;9.80;18.10;;;;;;4992101;28;20242;-70
2023/04/25 07:55:14;;;;;;;158.93;146.13;;;9.70;17.70;;;;;;4992509;28;20179;-70
2023/04/25 07:57:40;;;;;;;185.27;171.57;;;9.70;18.30;;;;;;4992302;28;20180;-70
2023/04/25 08:00:09;;;;;;;177.07;163.57;;;9.70;19.50;;;;;;4992494;28;20203;-70
2023/04/25 08:02:35;;;;;;;154.03;141.57;;;9.70;19.00;;;;;;4992093;28;20709;-70
2023/04/25 08:05:00;;;;;;;232.70;217.77;;;9.70;18.30;;;;;;4991345;28;20498;-70
2023/04/25 08:07:26;;;;;;;263.20;245.87;;;9.70;18.90;;;;;;4991243;28;20772;-70
2023/04/25 08:09:52;;;;;;;177.90;163.80;;;9.70;17.20;;;;;;4991677;28;20244;-70
2023/04/25 08:12:17;;;;;;;180.27;167.20;;;9.60;18.40;;;;;;4991982;28;20211;-70
2023/04/25 08:14:43;;;;;;;186.20;172.90;;;9.60;20.30;;;;;;4997585;28;20459;-71
2023/04/25 08:17:09;;;;;;;238.87;222.13;;;9.70;20.20;;;;;;5011784;28;20175;-70
2023/04/25 08:19:35;;;;;;;186.27;172.10;;;9.70;18.90;;;;;;5011419;28;20190;-70
2023/04/25 08:22:00;;;;;;;369.37;344.83;;;9.60;19.40;;;;;;5011472;28;20906;-70
2023/04/25 08:24:26;;;;;;;227.27;210.63;;;9.50;20.00;;;;;;5011793;28;20179;-70
2023/04/25 08:26:52;;;;;;;247.37;231.13;;;9.40;20.70;;;;;;5011421;28;20190;-70
2023/04/25 08:29:17;;;;;;;172.43;159.53;;;9.20;22.20;;;;;;5011723;28;20186;-70
2023/04/25 08:31:43;;;;;;;193.57;179.73;;;9.10;23.90;;;;;;5011238;28;20210;-70
2023/04/25 08:34:09;;;;;;;225.10;209.87;;;9.10;23.30;;;;;;5011341;28;20641;-70
2023/04/25 08:36:35;;;;;;;296.47;278.53;;;9.20;23.20;;;;;;5011607;28;20171;-70
2023/04/25 08:39:00;;;;;;;259.00;241.73;;;9.20;23.00;;;;;;5012149;28;20433;-70
2023/04/25 08:41:27;;;;;;;198.17;183.97;;;9.10;22.80;;;;;;5014915;28;20226;-71
2023/04/25 08:43:55;;;;;;;230.87;215.30;;;8.90;23.40;;;;;;5014944;28;20183;-71
2023/04/25 08:46:22;;;;;;;305.80;285.30;;;8.90;23.60;;;;;;5015331;28;20481;-70
2023/04/25 08:48:49;;;;;;;215.27;200.53;;;8.80;24.70;;;;;;5003213;28;20988;-70
2023/04/25 08:51:24;;;;;;;228.53;211.77;;;8.50;25.50;;;;;;4995428;28;20934;-70
2023/04/25 08:53:51;;;;;;;285.70;266.40;;;8.40;27.30;;;;;;4995259;28;20433;-70
2023/04/25 08:56:17;;;;;;;331.30;309.73;;;8.20;26.90;;;;;;4995825;28;21146;-70
2023/04/25 08:58:45;;;;;;;283.60;266.00;;;8.10;27.10;;;;;;4995527;28;20432;-70
2023/04/25 09:01:11;;;;;;;258.47;241.97;;;8.20;27.90;;;;;;4995405;28;20503;-70
2023/04/25 09:03:37;;;;;;;151.80;139.53;;;8.20;26.80;;;;;;4995081;28;20433;-70
2023/04/25 09:06:03;;;;;;;294.67;273.90;;;8.10;26.30;;;;;;5001079;28;20651;-71
2023/04/25 09:08:29;;;;;;;296.03;275.73;;;8.00;26.10;;;;;;5014965;28;20192;-70
2023/04/25 09:10:55;;;;;;;274.17;255.17;;;8.00;26.60;;;;;;5014658;28;20461;-71
2023/04/25 09:13:26;;;;;;;113.50;102.47;;;7.80;26.10;;;;;;5014153;28;20427;-70
2023/04/25 09:15:56;;;;;;;272.37;255.23;;;7.90;27.40;;;;;;5004186;28;20181;-71
2023/04/25 09:18:29;;;;;;;149.83;137.73;;;8.00;26.60;;;;;;4995097;28;20412;-71
2023/04/25 09:20:56;;;;;;;266.97;251.03;;;8.00;27.10;;;;;;4994769;28;20440;-70
2023/04/25 09:23:23;;;;;;;331.97;309.87;;;8.10;27.50;;;;;;4994634;28;20425;-70
2023/04/25 09:25:53;;;;;;;190.27;176.60;;;8.10;29.50;;;;;;4994839;28;20436;-70
2023/04/25 09:28:26;;;;;;;197.73;184.90;;;8.10;26.30;;;;;;4994885;28;20413;-70
2023/04/25 09:30:57;;;;;;;115.77;104.47;;;8.10;26.90;;;;;;4994514;28;20460;-70
2023/04/25 09:33:35;;;;;;;232.63;217.87;;;8.40;26.80;;;;;;4994463;28;20922;-71
2023/04/25 09:36:07;;;;;;;182.10;168.77;;;8.30;26.40;;;;;;4994744;28;20442;-71
2023/04/25 09:38:43;;;;;;;114.93;104.37;;;8.20;26.40;;;;;;4994601;28;20427;-70
2023/04/25 09:41:09;;;;;;;426.73;396.83;;;8.30;26.40;;;;;;4994480;28;20467;-71
2023/04/25 09:43:36;;;;;;;287.20;268.20;;;8.00;28.70;;;;;;4994359;28;20833;-71
2023/04/25 09:46:01;;;;;;;189.13;175.63;;;7.80;28.10;;;;;;4994423;28;20422;-70
2023/04/25 09:48:28;;;;;;;277.43;257.53;;;7.50;27.20;;;;;;4994490;28;20519;-71
2023/04/25 09:51:03;;;;;;;440.67;411.33;;;7.40;28.50;;;;;;4993401;28;20205;-70
2023/04/25 09:53:29;;;;;;;134.17;122.67;;;7.30;27.60;;;;;;4994120;28;20425;-70
2023/04/25 09:55:56;;;;;;;268.00;249.80;;;7.30;29.80;;;;;;4994254;28;20464;-70
2023/04/25 09:58:24;;;;;;;185.20;172.03;;;7.40;28.10;;;;;;4994146;28;20201;-70
2023/04/25 10:00:51;;;;;;;187.80;174.83;;;7.30;29.80;;;;;;4994385;28;20432;-70
2023/04/25 10:03:17;;;;;;;161.27;148.87;;;7.20;30.20;;;;;;4994078;28;20768;-70
2023/04/25 10:05:44;;;;;;;141.47;130.17;;;7.40;31.40;;;;;;4994208;28;20427;-70
2023/04/25 10:08:11;;;;;;;180.77;167.40;;;7.40;28.50;;;;;;4994134;28;20423;-70
2023/04/25 10:10:40;;;;;;;185.87;173.10;;;7.70;28.80;;;;;;4993948;28;20435;-70
2023/04/25 10:13:06;;;;;;;410.93;383.20;;;7.70;27.30;;;;;;4993757;28;20446;-70
2023/04/25 10:15:35;;;;;;;533.03;492.03;;;7.40;26.80;;;;;;4993902;28;20429;-71
2023/04/25 10:18:01;;;;;;;265.70;248.60;;;7.30;27.90;;;;;;4999270;28;20431;-70
2023/04/25 10:20:27;;;;;;;142.50;130.70;;;7.20;29.30;;;;;;5013353;28;20430;-71
2023/04/25 10:22:56;;;;;;;238.33;222.97;;;7.30;28.70;;;;;;5013388;28;20775;-71
2023/04/25 10:25:23;;;;;;;386.23;359.17;;;7.30;30.30;;;;;;5013483;28;20215;-71
2023/04/25 10:27:51;;;;;;;277.43;258.97;;;7.20;28.70;;;;;;5013514;28;20498;-70
2023/04/25 10:30:18;;;;;;;260.83;243.37;;;6.90;28.80;;;;;;5013333;28;20442;-71
2023/04/25 10:32:45;;;;;;;480.00;446.47;;;6.70;32.70;;;;;;5012679;28;20458;-70
2023/04/25 10:35:33;;;;;;;321.17;299.80;;;6.70;33.90;;;;;;5012656;28;20427;-70
2023/04/25 10:38:09;;;;;;;171.93;158.60;;;6.40;33.20;;;;;;5013211;28;20446;-70
2023/04/25 10:40:35;;;;;;;195.30;181.53;;;6.50;32.10;;;;;;5012050;28;20462;-70
2023/04/25 10:43:38;;;;;;;155.13;142.90;;;6.50;30.90;;;;;;5012293;28;20794;-70
2023/04/25 10:46:25;;;;;;;386.53;359.27;;;6.50;31.40;;;;;;5013073;28;20406;-70
2023/04/25 10:48:59;;;;;;;175.33;162.73;;;6.60;29.40;;;;;;5007521;28;20418;-70
2023/04/25 10:51:26;;;;;;;367.53;343.37;;;6.50;28.20;;;;;;4993050;28;20448;-70
2023/04/25 10:53:55;;;;;;;234.30;219.17;;;6.50;28.40;;;;;;5006476;28;20522;-70
2023/04/25 10:56:41;;;;;;;209.53;195.07;;;6.70;27.40;;;;;;5012867;28;20417;-70
2023/04/25 10:59:09;;;;;;;198.97;185.17;;;7.00;26.40;;;;;;5012365;28;20489;-70
2023/04/25 11:01:45;;;;;;;227.30;212.40;;;7.10;27.30;;;;;;5012272;28;20431;-70
2023/04/25 11:04:28;;;;;;;282.97;265.70;;;7.50;27.40;;;;;;4996593;28;20789;-70
2023/04/25 11:07:05;;;;;;;170.27;157.53;;;7.70;25.10;;;;;;4992912;28;20500;-70
2023/04/25 11:09:32;;;;;;;227.53;211.97;;;7.90;25.40;;;;;;4993036;28;20419;-70
2023/04/25 11:11:58;;;;;;;179.37;166.67;;;7.30;23.30;;;;;;4992484;28;20455;-70
2023/04/25 11:14:24;;;;;;;207.07;192.83;;;7.70;23.60;;;;;;5009819;28;20434;-70
2023/04/25 11:16:58;;;;;;;168.10;154.83;;;7.90;23.40;;;;;;5012412;28;20943;-70
2023/04/25 11:19:24;;;;;;;167.50;154.87;;;8.20;21.80;;;;;;5012432;28;20411;-70
2023/04/25 11:21:50;;;;;;;316.90;294.53;;;8.30;21.80;;;;;;5011982;28;20443;-70
2023/04/25 11:24:17;;;;;;;208.27;193.70;;;8.40;20.10;;;;;;4996080;28;20466;-70
2023/04/25 11:26:43;;;;;;;224.47;209.47;;;8.60;20.70;;;;;;4993011;28;20785;-73
2023/04/25 11:29:09;;;;;;;178.13;165.13;;;8.50;20.70;;;;;;4993111;28;20411;-70
2023/04/25 11:31:34;;;;;;;185.20;172.13;;;8.20;20.60;;;;;;4992191;28;20472;-69
2023/04/25 11:34:00;;;;;;;121.90;110.27;;;8.20;20.60;;;;;;5005942;28;20323;-70
2023/04/25 11:36:26;;;;;;;190.00;175.73;;;8.20;22.20;;;;;;5011903;28;20249;-69
2023/04/25 11:38:52;;;;;;;199.57;185.27;;;8.50;19.10;;;;;;5012173;28;20172;-69
2023/04/25 11:41:22;;;;;;;170.13;157.10;;;8.30;18.90;;;;;;5010102;28;20987;-69
2023/04/25 11:43:48;;;;;;;141.17;129.43;;;8.00;21.70;;;;;;4999394;28;20436;-69
2023/04/25 11:46:15;;;;;;;163.83;151.10;;;8.20;21.30;;;;;;4998379;28;20428;-69
2023/04/25 11:48:41;;;;;;;133.97;122.73;;;8.60;20.10;;;;;;5007914;28;20974;-69
2023/04/25 11:51:07;;;;;;;176.13;161.83;;;8.70;20.50;;;;;;5007080;28;20471;-69
2023/04/25 11:53:33;;;;;;;232.37;217.93;;;8.90;18.90;;;;;;4998233;28;20431;-70
2023/04/25 11:55:58;;;;;;;89.80;78.70;;;8.80;18.70;;;;;;4987844;28;20419;-69
2023/04/25 11:58:25;;;;;;;195.93;182.03;;;8.50;19.30;;;;;;4987393;28;20181;-69
2023/04/25 12:00:51;;;;;;;271.00;253.40;;;8.50;19.50;;;;;;4987866;28;20193;-69
2023/04/25 12:03:18;;;;;;;201.33;187.27;;;8.50;20.00;;;;;;4987596;28;20516;-70
2023/04/25 12:05:45;;;;;;;142.07;130.43;;;8.40;19.60;;;;;;4988019;28;20194;-69
2023/04/25 12:08:15;;;;;;;188.13;174.70;;;8.50;19.50;;;;;;4991232;28;20470;-73
2023/04/25 12:10:43;;;;;;;200.00;186.47;;;8.00;19.90;;;;;;4991245;28;20436;-69
2023/04/25 12:13:25;;;;;;;205.87;191.87;;;8.30;21.30;;;;;;4991353;28;20460;-70
2023/04/25 12:15:51;;;;;;;220.23;205.87;;;8.40;20.80;;;;;;4994653;28;20496;-69